LiveATC.Net - Listen to live air traffic control over the Internet!


ICAO: KTVC  IATA: TVC   Airport: Cherry Capital Airport
City: Traverse City   State/Province: Michigan
Country: United States   Continent: North America
KTVC METAR Weather: KTVC 161653Z 03008KT 10SM FEW025 24/18 A3002 RMK AO2 SLP163 T02390178
KTVC Flight Activity (FlightAware)
KTVC Airport Info   (iFlightPlanner)
KTVC VFR Sectional Chart   (iFlightPlanner) 
KTVC IFR Low Chart   (iFlightPlanner) 

KTVC Gnd/Twr/ZMP
Feed Status: DOWN
Last heard on: 2020-06-25 19:18:22 (20 days 22 hours 37 minutes ago)
Archive Access: KTVC Gnd/Twr/ZMP
FacilityFrequency
Minneapolis Center (Sector 02 Low)132.900
Traverse City Ground121.800
Traverse City Tower124.200
Sponsored by:

NOTICE

Unauthorized use prohibited. See LiveATC.net Terms of Service


Airport/ARTCC Code
Frequency Search
(e.g., 124.400, 128.75)
Site-wide search
 


Browse Feeds
Top 50 Feeds
Coverage Map
Bad Weather Areas

LiveATC FAQ
Offer LiveATC feed
Contact LiveATC.net
Press Inquiries

LiveATC on iPhone
LiveATC on Android

Windows Phone
Windows 8/10

LiveATC Mobile
(Mobile browser)

ATC Audio Archives
Interesting Recordings

LiveATC Forums


Home Page
About LiveATC.net
Make a Donation
Terms of Use
Privacy Policy

Canadian Air Freqs

AIRMETs/SIGMETs

FAA Airport Status
Nat'l Airspace Status
Arrival Demand Charts


Server Software By:
Icecast.org
Liquidsoap